Time;durP1;ratioP1;P1;durP2;ratioP2;P2;SDS_P1;SDS_P2;PMS_P1;PMS_P2;Temp;Humidity;BMP_temperature;BMP_pressure;BME280_temperature;BME280_humidity;BME280_pressure;Samples;Min_cycle;Max_cycle;Signal;HPM_P1;HPM_P2
2023/02/18 00:01:30;;;;;;;1.80;1.10;;;16.60;57.20;;;;;;5031480;28;20189;-48
2023/02/18 00:03:57;;;;;;;1.03;0.90;;;16.50;57.00;;;;;;5036387;28;20434;-48
2023/02/18 00:06:28;;;;;;;1.23;1.07;;;16.30;57.30;;;;;;5034176;28;20295;-49
2023/02/18 00:08:57;;;;;;;1.30;1.20;;;16.00;57.60;;;;;;5031155;28;20479;-49
2023/02/18 00:11:23;;;;;;;1.30;1.20;;;15.90;58.70;;;;;;5029744;28;20478;-48
2023/02/18 00:13:51;;;;;;;1.00;1.00;;;15.80;58.50;;;;;;5031460;28;21511;-49
2023/02/18 00:16:17;;;;;;;1.30;1.20;;;15.90;58.60;;;;;;5031320;28;20185;-49
2023/02/18 00:18:42;;;;;;;1.33;1.23;;;15.90;58.60;;;;;;5030901;28;20439;-48
2023/02/18 00:21:08;;;;;;;2.07;1.20;;;15.80;58.80;;;;;;5031215;28;20774;-49
2023/02/18 00:23:34;;;;;;;1.60;0.90;;;15.70;59.10;;;;;;5031308;28;20189;-49
2023/02/18 00:26:09;;;;;;;1.60;1.27;;;16.00;59.10;;;;;;5031010;28;20420;-50
2023/02/18 00:28:35;;;;;;;1.30;1.10;;;16.00;58.60;;;;;;5030654;28;20482;-48
2023/02/18 00:31:12;;;;;;;2.00;1.10;;;15.90;58.60;;;;;;5030792;28;20468;-48
2023/02/18 00:33:37;;;;;;;1.47;1.10;;;16.00;58.70;;;;;;5030849;28;20420;-49
2023/02/18 00:36:06;;;;;;;1.10;1.00;;;16.00;58.60;;;;;;5031050;28;21045;-48
2023/02/18 00:38:32;;;;;;;0.77;0.77;;;15.90;58.60;;;;;;5028554;28;20216;-48
2023/02/18 00:40:58;;;;;;;1.20;0.90;;;16.10;58.60;;;;;;5031175;28;20431;-48
2023/02/18 00:43:24;;;;;;;0.80;0.80;;;16.20;58.20;;;;;;5031148;28;20445;-50
2023/02/18 00:45:49;;;;;;;1.50;1.40;;;16.10;58.10;;;;;;5030877;28;20935;-48
2023/02/18 00:48:15;;;;;;;1.73;1.03;;;16.20;58.20;;;;;;5030207;28;20235;-48
2023/02/18 00:50:41;;;;;;;1.10;1.07;;;16.20;58.20;;;;;;5030815;28;20646;-51
2023/02/18 00:53:06;;;;;;;0.80;0.80;;;16.20;58.00;;;;;;5030814;28;20189;-49
2023/02/18 00:55:37;;;;;;;1.47;0.90;;;16.00;58.20;;;;;;5030683;28;20194;-48
2023/02/18 00:58:03;;;;;;;1.30;1.20;;;16.30;58.30;;;;;;5030068;28;20208;-48
2023/02/18 01:00:29;;;;;;;0.73;0.73;;;16.60;57.90;;;;;;5030499;28;20424;-49
2023/02/18 01:02:54;;;;;;;1.13;1.03;;;16.70;57.70;;;;;;5030041;28;20201;-49
2023/02/18 01:05:20;;;;;;;1.00;1.00;;;16.70;57.40;;;;;;5037534;28;20201;-48
2023/02/18 01:07:45;;;;;;;0.90;0.90;;;16.80;57.10;;;;;;5030082;28;20312;-48
2023/02/18 01:10:11;;;;;;;1.60;1.20;;;17.00;56.80;;;;;;5030662;28;20189;-48
2023/02/18 01:12:37;;;;;;;1.00;0.90;;;17.00;56.50;;;;;;5030216;28;20224;-49
2023/02/18 01:15:05;;;;;;;2.33;0.90;;;17.00;56.40;;;;;;5030392;28;20191;-48
2023/02/18 01:17:31;;;;;;;1.00;1.00;;;16.90;56.70;;;;;;5029696;28;20410;-49
2023/02/18 01:19:57;;;;;;;0.87;0.87;;;17.10;56.30;;;;;;5030264;28;20459;-49
2023/02/18 01:22:22;;;;;;;2.30;0.90;;;16.90;56.50;;;;;;5030621;28;20569;-50
2023/02/18 01:24:48;;;;;;;1.30;1.20;;;17.20;56.20;;;;;;5030358;28;20196;-48
2023/02/18 01:27:14;;;;;;;1.00;0.90;;;17.00;56.00;;;;;;5030129;28;20235;-49
2023/02/18 01:29:39;;;;;;;1.20;1.10;;;16.80;56.50;;;;;;5030329;28;20200;-50
2023/02/18 01:32:05;;;;;;;0.97;0.90;;;17.10;56.20;;;;;;5028515;28;20229;-49
2023/02/18 01:34:30;;;;;;;1.03;0.93;;;17.10;55.90;;;;;;5030598;28;20185;-49
2023/02/18 01:36:56;;;;;;;1.17;1.07;;;17.00;56.10;;;;;;5029718;28;20201;-50
2023/02/18 01:39:21;;;;;;;1.10;1.10;;;17.10;56.10;;;;;;5030245;28;20197;-49
2023/02/18 01:41:47;;;;;;;0.90;0.90;;;16.90;56.10;;;;;;5029933;28;20193;-48
2023/02/18 01:44:21;;;;;;;1.57;1.40;;;16.40;56.50;;;;;;5030336;28;20189;-49
2023/02/18 01:46:47;;;;;;;2.20;1.00;;;16.40;57.50;;;;;;5029536;28;20223;-50
2023/02/18 01:49:35;;;;;;;1.00;1.00;;;16.40;57.50;;;;;;5030100;28;20436;-48
2023/02/18 01:52:07;;;;;;;1.53;1.43;;;16.30;57.60;;;;;;5030034;28;20420;-48
2023/02/18 01:54:38;;;;;;;1.33;1.00;;;16.30;57.70;;;;;;5030114;28;20927;-48
2023/02/18 01:57:33;;;;;;;1.07;1.00;;;16.20;57.80;;;;;;5029594;28;20534;-49
2023/02/18 02:00:07;;;;;;;0.90;0.90;;;16.30;57.80;;;;;;5026927;28;20441;-48
2023/02/18 02:02:36;;;;;;;1.27;1.00;;;16.50;57.60;;;;;;5029947;28;20435;-48
2023/02/18 02:05:02;;;;;;;1.13;1.03;;;16.70;57.10;;;;;;5038087;28;20420;-48
2023/02/18 02:07:28;;;;;;;1.03;0.90;;;16.90;56.70;;;;;;5029537;28;20506;-48
2023/02/18 02:09:56;;;;;;;1.10;1.00;;;17.00;56.50;;;;;;5029955;28;20424;-49
2023/02/18 02:12:27;;;;;;;0.90;0.90;;;17.10;56.10;;;;;;5030054;28;20463;-48
2023/02/18 02:15:26;;;;;;;1.10;1.00;;;17.00;56.30;;;;;;5033137;28;20445;-48
2023/02/18 02:18:15;;;;;;;1.00;1.00;;;16.80;56.30;;;;;;5033260;28;20514;-48
2023/02/18 02:20:59;;;;;;;2.10;1.20;;;16.40;56.80;;;;;;5033683;28;20428;-49
2023/02/18 02:23:43;;;;;;;1.20;1.10;;;16.40;57.30;;;;;;5015695;28;20961;-49
2023/02/18 02:26:30;;;;;;;1.40;1.30;;;16.60;57.20;;;;;;5031794;28;20432;-48
2023/02/18 02:29:14;;;;;;;0.93;0.93;;;16.90;56.40;;;;;;5033350;28;21584;-47
2023/02/18 02:31:57;;;;;;;1.20;1.10;;;17.10;56.60;;;;;;5033567;28;20919;-49
2023/02/18 02:34:43;;;;;;;1.80;1.40;;;17.00;55.70;;;;;;5033122;28;20451;-49
2023/02/18 02:37:46;;;;;;;1.30;1.13;;;17.10;55.50;;;;;;5032629;28;20451;-48
2023/02/18 02:41:03;;;;;;;1.33;1.23;;;17.20;55.40;;;;;;5026283;28;20435;-48
2023/02/18 02:43:37;;;;;;;1.33;1.23;;;17.10;55.30;;;;;;5032848;28;20428;-49
2023/02/18 02:46:18;;;;;;;1.27;1.17;;;17.10;55.50;;;;;;5033073;28;20427;-48
2023/02/18 02:49:27;;;;;;;1.50;1.40;;;17.10;55.30;;;;;;5033018;28;20481;-48
2023/02/18 02:52:04;;;;;;;1.30;1.20;;;16.80;56.20;;;;;;5032874;28;20432;-48
2023/02/18 02:54:30;;;;;;;1.80;1.20;;;17.10;55.50;;;;;;5031495;28;20985;-49
2023/02/18 02:57:12;;;;;;;1.93;1.53;;;17.20;55.30;;;;;;5032289;28;20432;-48
2023/02/18 02:59:42;;;;;;;1.40;1.30;;;17.40;55.20;;;;;;5032992;28;20474;-49
2023/02/18 03:02:35;;;;;;;1.30;1.20;;;17.30;55.20;;;;;;5032828;28;20428;-49
2023/02/18 03:05:06;;;;;;;1.17;1.10;;;17.40;55.10;;;;;;5041159;28;20428;-50
2023/02/18 03:07:58;;;;;;;1.87;1.20;;;17.50;55.20;;;;;;5032271;28;20522;-49
2023/02/18 03:10:46;;;;;;;1.27;0.93;;;17.40;55.40;;;;;;5032807;28;20523;-49
2023/02/18 03:13:44;;;;;;;1.53;1.30;;;17.30;55.40;;;;;;5032568;28;20431;-48
2023/02/18 03:16:34;;;;;;;1.10;1.00;;;17.40;55.50;;;;;;5023385;28;20973;-49
2023/02/18 03:19:32;;;;;;;1.40;1.30;;;17.40;55.40;;;;;;5032306;28;20510;-51
2023/02/18 03:22:06;;;;;;;1.40;1.30;;;17.40;55.40;;;;;;5032412;28;20444;-49
2023/02/18 03:24:39;;;;;;;1.37;1.27;;;17.30;55.40;;;;;;5032064;28;20432;-51
2023/02/18 03:27:20;;;;;;;1.43;1.33;;;17.30;55.40;;;;;;5032074;28;20483;-49
2023/02/18 03:29:51;;;;;;;1.37;1.27;;;17.30;55.50;;;;;;5032373;28;20432;-49
2023/02/18 03:32:20;;;;;;;1.40;1.10;;;17.30;55.80;;;;;;5031875;28;20843;-48
2023/02/18 03:34:50;;;;;;;1.50;1.40;;;17.30;55.90;;;;;;5014234;28;20432;-49
2023/02/18 03:37:17;;;;;;;1.60;1.23;;;17.10;55.80;;;;;;5031572;28;20426;-48
2023/02/18 03:39:47;;;;;;;2.17;1.60;;;17.10;56.10;;;;;;5032051;28;20424;-49
2023/02/18 03:42:14;;;;;;;1.30;1.20;;;16.90;56.40;;;;;;5031903;28;20428;-49
2023/02/18 03:44:40;;;;;;;1.70;1.60;;;16.80;56.50;;;;;;5031910;28;20893;-49
2023/02/18 03:47:05;;;;;;;1.40;1.30;;;16.90;56.60;;;;;;5029864;28;20511;-49
2023/02/18 03:49:31;;;;;;;2.07;1.30;;;16.90;56.60;;;;;;5031862;28;20638;-48
2023/02/18 03:51:56;;;;;;;1.60;1.30;;;16.90;56.50;;;;;;5032010;28;20196;-52
2023/02/18 03:54:22;;;;;;;1.40;1.30;;;17.00;56.50;;;;;;5032119;28;20255;-51
2023/02/18 03:56:48;;;;;;;1.33;1.23;;;16.90;56.50;;;;;;5031490;28;20197;-52
2023/02/18 03:59:13;;;;;;;1.30;1.20;;;17.00;56.50;;;;;;5031742;28;20201;-49
2023/02/18 04:01:39;;;;;;;1.20;1.10;;;17.00;56.40;;;;;;5031808;28;20208;-48
2023/02/18 04:04:05;;;;;;;1.40;1.30;;;17.00;56.50;;;;;;5037405;28;20234;-52
2023/02/18 04:06:31;;;;;;;1.10;1.10;;;16.90;56.60;;;;;;5033562;28;20860;-52
2023/02/18 04:08:56;;;;;;;1.43;1.33;;;16.80;56.70;;;;;;5031607;28;20197;-51
2023/02/18 04:11:22;;;;;;;1.10;1.00;;;16.70;57.00;;;;;;5031550;28;20223;-51
2023/02/18 04:13:47;;;;;;;1.43;1.33;;;16.70;57.00;;;;;;5029848;28;20193;-52
2023/02/18 04:16:13;;;;;;;1.33;1.23;;;16.70;57.00;;;;;;5031327;28;20274;-53
2023/02/18 04:18:39;;;;;;;1.30;1.20;;;16.50;57.10;;;;;;5031286;28;20819;-52
2023/02/18 04:21:05;;;;;;;1.60;1.50;;;16.40;57.60;;;;;;5031233;28;20193;-53
2023/02/18 04:23:30;;;;;;;1.53;1.37;;;16.40;57.60;;;;;;5031154;28;20197;-52
2023/02/18 04:25:56;;;;;;;1.20;1.10;;;16.40;57.60;;;;;;5031070;28;20424;-53
2023/02/18 04:28:22;;;;;;;1.13;1.03;;;16.50;57.60;;;;;;5030858;28;20231;-51
2023/02/18 04:30:48;;;;;;;1.33;1.23;;;16.60;57.30;;;;;;5030901;28;20243;-52
2023/02/18 04:33:14;;;;;;;0.97;0.97;;;16.60;57.00;;;;;;5031004;28;20926;-52
2023/02/18 04:35:40;;;;;;;1.10;1.00;;;16.70;57.00;;;;;;5030481;28;20661;-52
2023/02/18 04:38:06;;;;;;;0.90;0.90;;;16.70;56.90;;;;;;5030256;28;20480;-52
2023/02/18 04:40:32;;;;;;;1.40;1.30;;;16.70;57.00;;;;;;5029150;28;20431;-52
2023/02/18 04:42:57;;;;;;;2.17;1.20;;;16.60;57.10;;;;;;5030979;28;20419;-52
2023/02/18 04:45:24;;;;;;;1.40;1.30;;;16.30;57.20;;;;;;5030797;28;20216;-52
2023/02/18 04:47:50;;;;;;;1.40;1.30;;;16.30;57.50;;;;;;5030484;28;20232;-51
2023/02/18 04:50:15;;;;;;;1.20;1.10;;;16.10;57.90;;;;;;5030721;28;20787;-53
2023/02/18 04:52:41;;;;;;;1.43;1.30;;;16.00;58.10;;;;;;5030720;28;20201;-49
2023/02/18 04:55:07;;;;;;;1.60;1.00;;;16.10;58.10;;;;;;5030623;28;20220;-52
2023/02/18 04:57:32;;;;;;;1.07;1.07;;;16.00;58.00;;;;;;5030313;28;20193;-52
2023/02/18 04:59:58;;;;;;;1.33;1.17;;;16.00;58.00;;;;;;5026833;28;20220;-52
2023/02/18 05:02:23;;;;;;;1.77;1.67;;;16.10;57.80;;;;;;5021454;28;20192;-51
2023/02/18 05:04:49;;;;;;;1.70;1.13;;;16.10;57.60;;;;;;5032993;28;20677;-51
2023/02/18 05:07:14;;;;;;;1.37;1.27;;;16.10;57.40;;;;;;5028456;28;20711;-49
2023/02/18 05:09:40;;;;;;;1.30;1.20;;;16.10;57.60;;;;;;5030501;28;20189;-52
2023/02/18 05:12:06;;;;;;;1.30;1.20;;;16.30;57.40;;;;;;5030414;28;20197;-53
2023/02/18 05:14:32;;;;;;;0.90;0.90;;;16.40;57.00;;;;;;5030318;28;20661;-53
2023/02/18 05:16:57;;;;;;;1.73;1.63;;;16.60;56.60;;;;;;5030172;28;20435;-49
2023/02/18 05:19:23;;;;;;;1.70;1.20;;;16.60;56.40;;;;;;5030462;28;20645;-52
2023/02/18 05:21:49;;;;;;;1.53;1.37;;;16.60;56.40;;;;;;5030424;28;20201;-53
2023/02/18 05:24:14;;;;;;;2.20;1.20;;;16.40;56.70;;;;;;5030115;28;20196;-52
2023/02/18 05:26:40;;;;;;;1.27;1.07;;;16.50;56.90;;;;;;5029769;28;20225;-52
2023/02/18 05:29:06;;;;;;;1.10;1.00;;;16.40;56.80;;;;;;5030219;28;20197;-49
2023/02/18 05:31:31;;;;;;;1.40;1.30;;;16.50;56.70;;;;;;5030009;28;20236;-50
2023/02/18 05:33:57;;;;;;;0.97;0.87;;;16.50;56.70;;;;;;5028467;28;20199;-53
2023/02/18 05:36:22;;;;;;;1.20;1.07;;;16.50;56.90;;;;;;5029843;28;20640;-52
2023/02/18 05:38:48;;;;;;;1.53;1.20;;;16.50;56.80;;;;;;5030244;28;20240;-49
2023/02/18 05:41:14;;;;;;;1.17;0.90;;;16.50;56.70;;;;;;5030234;28;20205;-52
2023/02/18 05:46:23;;;;;;;1.40;1.10;;;16.60;56.70;;;;;;5029810;28;20270;-51
2023/02/18 05:48:49;;;;;;;1.77;1.20;;;16.50;56.80;;;;;;5033205;28;20471;-49
2023/02/18 05:51:15;;;;;;;0.93;0.93;;;16.50;56.70;;;;;;5034171;28;20193;-49
2023/02/18 05:53:41;;;;;;;1.30;1.20;;;16.50;56.70;;;;;;5034106;28;20200;-52
2023/02/18 05:56:06;;;;;;;1.17;1.07;;;16.40;57.00;;;;;;5033760;28;20189;-52
2023/02/18 05:58:32;;;;;;;1.23;1.00;;;16.50;57.10;;;;;;5034129;28;20197;-49
2023/02/18 06:00:57;;;;;;;1.27;1.17;;;16.50;56.90;;;;;;5032159;28;20197;-51
2023/02/18 06:03:23;;;;;;;1.20;1.10;;;16.50;56.80;;;;;;5033902;28;20205;-50
2023/02/18 06:05:50;;;;;;;2.07;1.40;;;16.40;57.00;;;;;;5042464;28;20280;-51
2023/02/18 06:08:16;;;;;;;1.47;1.37;;;16.50;57.00;;;;;;5015570;28;20282;-49
2023/02/18 06:10:41;;;;;;;1.70;1.60;;;16.50;56.90;;;;;;5033719;28;20432;-49
2023/02/18 06:13:07;;;;;;;1.90;1.40;;;16.60;56.70;;;;;;5033493;28;20284;-51
2023/02/18 06:15:32;;;;;;;1.63;1.53;;;16.60;56.60;;;;;;5033888;28;20598;-49
2023/02/18 06:17:58;;;;;;;1.97;1.10;;;16.70;56.60;;;;;;5033220;28;20197;-49
2023/02/18 06:20:24;;;;;;;1.53;1.13;;;16.60;56.60;;;;;;5033768;28;20545;-51
2023/02/18 06:22:49;;;;;;;1.33;1.23;;;16.70;56.50;;;;;;5033907;28;20220;-49
2023/02/18 06:25:15;;;;;;;1.10;1.10;;;16.70;56.50;;;;;;5033507;28;20207;-50
2023/02/18 06:27:40;;;;;;;1.47;1.37;;;16.70;56.50;;;;;;5031748;28;20232;-51
2023/02/18 06:30:06;;;;;;;1.40;1.30;;;16.60;56.50;;;;;;5032878;28;20197;-50
2023/02/18 06:32:32;;;;;;;1.00;0.90;;;16.70;56.40;;;;;;5033410;28;20233;-49
2023/02/18 06:34:57;;;;;;;1.30;1.20;;;16.70;56.60;;;;;;5015668;28;20494;-48
2023/02/18 06:37:23;;;;;;;1.00;1.00;;;16.70;56.50;;;;;;5033161;28;20201;-48
2023/02/18 06:39:49;;;;;;;1.13;1.00;;;16.80;56.30;;;;;;5033300;28;20193;-49
2023/02/18 06:42:14;;;;;;;1.77;1.27;;;16.80;56.30;;;;;;5033218;28;20336;-52
2023/02/18 06:44:40;;;;;;;0.83;0.83;;;16.60;56.40;;;;;;5033139;28;20239;-49
2023/02/18 06:47:06;;;;;;;0.90;0.90;;;16.70;56.50;;;;;;5014890;28;20763;-49
2023/02/18 06:49:31;;;;;;;1.17;1.07;;;16.60;56.60;;;;;;5033143;28;20570;-49
2023/02/18 06:51:57;;;;;;;1.73;1.10;;;16.70;56.50;;;;;;5033019;28;20496;-49
2023/02/18 06:54:23;;;;;;;1.00;0.90;;;16.70;56.40;;;;;;5032981;28;20295;-52
2023/02/18 06:56:50;;;;;;;1.30;1.20;;;16.60;56.80;;;;;;5031255;28;20227;-50
2023/02/18 06:59:15;;;;;;;1.30;1.20;;;16.70;56.70;;;;;;5032306;28;20503;-48
2023/02/18 07:01:41;;;;;;;1.37;1.27;;;16.70;56.80;;;;;;5032947;28;21018;-50
2023/02/18 07:04:06;;;;;;;1.63;1.53;;;16.70;56.70;;;;;;5038633;28;20262;-49
2023/02/18 07:06:32;;;;;;;1.33;1.23;;;16.60;56.80;;;;;;5034092;28;20197;-52
2023/02/18 07:08:57;;;;;;;1.53;1.30;;;16.60;57.00;;;;;;5032759;28;20226;-48
2023/02/18 07:11:23;;;;;;;2.10;1.37;;;16.40;57.10;;;;;;5014919;28;20690;-48
2023/02/18 07:13:49;;;;;;;1.70;1.37;;;16.00;57.90;;;;;;5032413;28;20216;-49
2023/02/18 07:16:14;;;;;;;1.57;1.47;;;16.10;58.00;;;;;;5032366;28;20201;-50
2023/02/18 07:18:40;;;;;;;1.63;1.53;;;15.90;58.30;;;;;;5032498;28;20675;-52
2023/02/18 07:21:05;;;;;;;1.50;1.40;;;15.80;58.60;;;;;;5032416;28;20193;-49
2023/02/18 07:23:31;;;;;;;2.73;1.50;;;15.80;58.60;;;;;;5030776;28;20222;-49
2023/02/18 07:26:08;;;;;;;1.77;1.40;;;15.90;58.40;;;;;;5032312;28;20660;-53
2023/02/18 07:28:34;;;;;;;1.70;1.60;;;15.60;58.50;;;;;;5032191;28;20259;-49
2023/02/18 07:31:00;;;;;;;2.47;2.20;;;15.50;59.00;;;;;;5032081;28;20896;-51
2023/02/18 07:33:26;;;;;;;1.40;1.30;;;15.50;59.20;;;;;;5032139;28;20189;-52
2023/02/18 07:35:56;;;;;;;1.90;1.60;;;15.50;59.20;;;;;;5032481;28;20201;-48
2023/02/18 07:38:23;;;;;;;4.37;1.47;;;15.50;59.30;;;;;;5032181;28;20189;-48
2023/02/18 07:40:49;;;;;;;1.60;1.50;;;15.60;59.10;;;;;;5032533;28;20432;-52
2023/02/18 07:43:15;;;;;;;1.80;1.30;;;15.40;59.30;;;;;;5031999;28;20439;-50
2023/02/18 07:45:40;;;;;;;1.50;1.40;;;15.40;59.60;;;;;;5032059;28;20420;-49
2023/02/18 07:48:06;;;;;;;1.70;1.60;;;15.50;59.70;;;;;;5031450;28;20225;-52
2023/02/18 07:50:34;;;;;;;2.13;1.70;;;15.70;59.40;;;;;;5030295;28;20959;-49
2023/02/18 07:53:11;;;;;;;2.20;1.20;;;15.80;59.30;;;;;;5031840;28;20197;-51
2023/02/18 07:55:49;;;;;;;1.53;1.43;;;15.90;59.00;;;;;;5031844;28;20416;-50
2023/02/18 07:58:16;;;;;;;1.73;1.63;;;16.00;58.90;;;;;;5031616;28;20431;-51
2023/02/18 08:00:42;;;;;;;1.73;1.63;;;16.00;59.10;;;;;;5031761;28;20436;-48
2023/02/18 08:03:07;;;;;;;1.30;1.20;;;15.90;59.10;;;;;;5031561;28;20975;-48
2023/02/18 08:05:33;;;;;;;1.30;1.20;;;16.10;59.00;;;;;;5040366;28;20196;-48
2023/02/18 08:07:59;;;;;;;1.40;1.30;;;16.20;58.70;;;;;;5030923;28;20309;-53
2023/02/18 08:10:24;;;;;;;1.40;1.30;;;16.40;58.40;;;;;;5030852;28;20223;-50
2023/02/18 08:12:50;;;;;;;1.70;1.60;;;16.40;58.20;;;;;;5031028;28;20675;-49
2023/02/18 08:15:15;;;;;;;3.63;1.83;;;16.50;58.10;;;;;;5031203;28;20681;-50
2023/02/18 08:17:41;;;;;;;1.47;1.37;;;16.50;58.00;;;;;;5029978;28;20197;-48
2023/02/18 08:20:07;;;;;;;5.30;2.03;;;16.40;58.10;;;;;;5031878;28;20549;-52
2023/02/18 08:22:33;;;;;;;1.77;1.40;;;16.30;58.20;;;;;;5031197;28;20300;-48
2023/02/18 08:24:59;;;;;;;2.00;1.80;;;16.40;58.20;;;;;;5031243;28;20511;-49
2023/02/18 08:27:24;;;;;;;1.60;1.50;;;16.40;57.90;;;;;;5030902;28;20252;-49
2023/02/18 08:29:50;;;;;;;2.87;2.03;;;16.10;57.80;;;;;;5031383;28;20678;-49
2023/02/18 08:32:27;;;;;;;1.90;1.73;;;15.90;58.00;;;;;;5066811;28;20562;-47
2023/02/18 08:34:53;;;;;;;2.00;1.70;;;15.90;58.30;;;;;;5056174;28;20509;-48
2023/02/18 08:37:19;;;;;;;1.70;1.60;;;16.00;58.10;;;;;;5046758;28;20458;-49
2023/02/18 08:39:44;;;;;;;3.47;1.60;;;16.10;58.10;;;;;;5047028;28;20683;-49
2023/02/18 08:42:10;;;;;;;1.70;1.57;;;16.00;57.70;;;;;;5046565;28;20200;-49
2023/02/18 08:44:36;;;;;;;5.00;1.90;;;15.80;57.90;;;;;;5046241;28;20193;-47
2023/02/18 08:47:01;;;;;;;1.67;1.57;;;15.90;58.30;;;;;;5046762;28;20189;-48
2023/02/18 08:49:27;;;;;;;2.03;1.53;;;16.00;58.10;;;;;;5046949;28;20204;-47
2023/02/18 08:51:52;;;;;;;1.30;1.20;;;16.10;57.80;;;;;;5046860;28;20232;-47
2023/02/18 08:54:18;;;;;;;1.50;1.40;;;15.90;57.60;;;;;;5047023;28;20223;-48
2023/02/18 08:56:44;;;;;;;1.60;1.50;;;16.00;57.60;;;;;;5046400;28;20315;-48
2023/02/18 08:59:10;;;;;;;2.40;1.50;;;16.10;57.30;;;;;;5046659;28;20652;-49
2023/02/18 09:01:35;;;;;;;1.23;1.10;;;16.30;57.10;;;;;;5046592;28;20196;-49
2023/02/18 09:04:01;;;;;;;1.80;1.53;;;16.30;56.70;;;;;;5046688;28;20191;-48
2023/02/18 09:06:27;;;;;;;3.40;1.50;;;16.40;56.60;;;;;;5046232;28;20200;-49
2023/02/18 09:08:52;;;;;;;1.83;1.70;;;16.30;56.30;;;;;;5046516;28;20200;-47
2023/02/18 09:11:19;;;;;;;1.73;1.63;;;16.20;56.60;;;;;;5044694;28;20619;-49
2023/02/18 09:13:45;;;;;;;1.60;1.50;;;16.20;56.80;;;;;;5046399;28;20196;-48
2023/02/18 09:16:19;;;;;;;1.40;1.30;;;16.50;56.50;;;;;;5046202;28;20561;-48
2023/02/18 09:18:46;;;;;;;1.33;1.23;;;16.50;56.00;;;;;;5046562;28;21045;-47
2023/02/18 09:21:14;;;;;;;1.80;1.70;;;16.50;56.30;;;;;;5046584;28;20494;-48
2023/02/18 09:23:40;;;;;;;1.67;1.50;;;16.40;55.80;;;;;;5046366;28;20865;-48
2023/02/18 09:26:08;;;;;;;1.00;1.00;;;16.60;56.00;;;;;;5045813;28;20415;-47
2023/02/18 09:28:35;;;;;;;2.17;1.40;;;16.80;55.70;;;;;;5046150;28;20207;-48
2023/02/18 09:31:09;;;;;;;1.47;1.37;;;16.60;55.50;;;;;;5046063;28;21009;-48
2023/02/18 09:33:40;;;;;;;2.23;1.37;;;16.70;55.60;;;;;;5056720;28;20479;-49
2023/02/18 09:36:06;;;;;;;2.27;1.30;;;16.70;55.00;;;;;;5044963;28;20422;-48
2023/02/18 09:38:32;;;;;;;1.53;1.20;;;16.70;54.90;;;;;;5045139;28;20424;-48
2023/02/18 09:41:00;;;;;;;2.70;1.50;;;16.60;54.40;;;;;;5045775;28;20478;-48
2023/02/18 09:43:35;;;;;;;1.50;1.40;;;16.60;55.00;;;;;;5034367;28;20793;-48
2023/02/18 09:46:03;;;;;;;1.60;1.50;;;16.40;54.90;;;;;;5032193;28;20944;-47
2023/02/18 09:48:32;;;;;;;1.87;1.20;;;16.70;55.20;;;;;;5032488;28;20473;-48
2023/02/18 09:50:58;;;;;;;3.33;1.47;;;16.60;54.70;;;;;;5032471;28;20850;-47
2023/02/18 09:53:24;;;;;;;3.00;2.17;;;16.80;55.10;;;;;;5032538;28;20493;-49
2023/02/18 09:55:53;;;;;;;3.63;1.63;;;16.90;54.20;;;;;;5032417;28;20817;-49
2023/02/18 09:58:22;;;;;;;1.73;1.63;;;17.00;54.30;;;;;;5032270;28;20427;-48
2023/02/18 10:00:57;;;;;;;1.20;1.10;;;17.10;54.20;;;;;;5032461;28;20519;-48
2023/02/18 10:03:25;;;;;;;1.50;1.40;;;17.00;53.80;;;;;;5030546;28;20427;-48
2023/02/18 10:06:04;;;;;;;1.50;1.40;;;17.10;53.80;;;;;;5032165;28;20525;-48
2023/02/18 10:08:43;;;;;;;2.27;1.43;;;16.80;53.60;;;;;;5032437;28;20423;-49
2023/02/18 10:11:15;;;;;;;1.97;1.10;;;17.00;54.10;;;;;;5031985;28;20483;-47
2023/02/18 10:13:42;;;;;;;1.27;1.17;;;16.90;53.80;;;;;;5030862;28;20436;-47
2023/02/18 10:16:13;;;;;;;1.33;1.23;;;17.00;53.80;;;;;;5031659;28;20428;-48
2023/02/18 10:18:41;;;;;;;3.53;1.20;;;17.00;53.90;;;;;;5032216;28;20429;-48
2023/02/18 10:21:31;;;;;;;2.17;1.50;;;17.20;53.90;;;;;;5031902;28;20432;-51
2023/02/18 10:24:09;;;;;;;1.67;1.57;;;17.10;53.40;;;;;;5031712;28;20432;-49
2023/02/18 10:26:36;;;;;;;6.80;1.30;;;17.10;53.40;;;;;;5031745;28;20424;-48
2023/02/18 10:29:03;;;;;;;2.70;1.50;;;17.20;53.90;;;;;;5031619;28;20482;-47
2023/02/18 10:31:34;;;;;;;1.27;1.17;;;17.50;53.40;;;;;;5030284;28;20488;-48
2023/02/18 10:34:35;;;;;;;1.30;1.20;;;17.50;53.30;;;;;;5042290;28;20434;-48
2023/02/18 10:37:06;;;;;;;1.47;1.37;;;17.60;52.60;;;;;;5003239;28;20432;-49
2023/02/18 10:40:20;;;;;;;1.60;1.40;;;17.40;53.00;;;;;;5031892;28;20939;-48
2023/02/18 10:43:14;;;;;;;1.53;1.40;;;17.40;53.00;;;;;;5031649;28;20582;-48
2023/02/18 10:45:52;;;;;;;2.77;1.37;;;17.80;53.20;;;;;;5030923;28;20440;-48
2023/02/18 10:48:30;;;;;;;1.70;1.10;;;17.90;52.40;;;;;;5031401;28;20420;-48
2023/02/18 10:50:59;;;;;;;1.50;1.40;;;17.80;52.20;;;;;;5031435;28;20927;-47
2023/02/18 10:53:31;;;;;;;1.60;1.20;;;17.90;52.40;;;;;;5030760;28;20460;-48
2023/02/18 10:55:57;;;;;;;1.53;1.30;;;18.00;52.40;;;;;;5030581;28;20557;-48
2023/02/18 10:58:47;;;;;;;1.83;1.20;;;17.80;51.80;;;;;;5029497;28;21018;-49
2023/02/18 11:01:16;;;;;;;1.40;1.30;;;17.80;52.00;;;;;;5031259;28;20227;-49
2023/02/18 11:03:50;;;;;;;1.87;1.40;;;18.00;52.10;;;;;;5031218;28;20527;-47
2023/02/18 11:06:38;;;;;;;3.03;1.63;;;18.10;52.00;;;;;;5031162;28;20470;-47
2023/02/18 11:09:06;;;;;;;2.47;1.20;;;18.00;51.80;;;;;;5031156;28;20923;-48
2023/02/18 11:11:36;;;;;;;1.83;1.53;;;18.00;52.00;;;;;;5031108;28;20537;-48
2023/02/18 11:14:06;;;;;;;2.13;1.70;;;18.10;51.90;;;;;;5031082;28;20474;-49
2023/02/18 11:16:42;;;;;;;1.63;1.30;;;18.30;51.50;;;;;;5030472;28;20432;-48
2023/02/18 11:19:32;;;;;;;1.40;1.20;;;18.20;50.90;;;;;;5030975;28;20523;-48
2023/02/18 11:22:14;;;;;;;1.60;1.30;;;18.20;51.00;;;;;;5030666;28;20942;-48
2023/02/18 11:24:40;;;;;;;1.10;1.00;;;18.30;51.30;;;;;;5029286;28;20455;-48
2023/02/18 11:27:10;;;;;;;2.73;1.03;;;18.10;50.90;;;;;;5030585;28;20468;-48
2023/02/18 11:29:36;;;;;;;1.40;1.30;;;18.10;51.00;;;;;;5030768;28;20447;-48
2023/02/18 11:32:01;;;;;;;1.40;1.30;;;18.20;50.70;;;;;;5030568;28;20484;-48
2023/02/18 11:34:31;;;;;;;1.10;1.00;;;18.30;50.60;;;;;;5041315;28;20239;-50
2023/02/18 11:37:10;;;;;;;1.30;1.20;;;18.40;50.30;;;;;;5030088;28;20272;-48
2023/02/18 11:39:43;;;;;;;1.47;1.07;;;18.60;50.00;;;;;;5030473;28;20843;-49
2023/02/18 11:42:14;;;;;;;1.20;1.10;;;18.70;49.30;;;;;;5030440;28;20432;-49
2023/02/18 11:44:46;;;;;;;1.77;1.30;;;18.50;49.20;;;;;;5030520;28;20432;-49
2023/02/18 11:47:12;;;;;;;1.60;1.50;;;18.50;49.00;;;;;;5029929;28;20523;-48
2023/02/18 11:49:38;;;;;;;1.50;1.23;;;18.40;48.70;;;;;;5030458;28;21015;-48
2023/02/18 11:52:17;;;;;;;1.20;1.10;;;18.40;48.80;;;;;;5029004;28;20232;-47
2023/02/18 11:55:05;;;;;;;1.33;1.20;;;18.60;49.00;;;;;;5030383;28;20443;-48
2023/02/18 11:57:34;;;;;;;1.90;1.17;;;18.50;48.30;;;;;;5029847;28;20490;-48
2023/02/18 12:00:01;;;;;;;1.13;1.03;;;18.20;48.10;;;;;;5029949;28;20431;-48
2023/02/18 12:02:36;;;;;;;1.53;1.43;;;18.20;48.70;;;;;;5030116;28;20463;-48
2023/02/18 12:05:15;;;;;;;1.30;1.20;;;18.30;48.60;;;;;;5029965;28;20428;-50
2023/02/18 12:07:44;;;;;;;1.27;1.17;;;18.60;48.50;;;;;;5029926;28;20436;-48
2023/02/18 12:10:26;;;;;;;1.47;1.10;;;18.60;47.90;;;;;;5029940;28;20433;-48
2023/02/18 12:13:07;;;;;;;1.07;0.97;;;18.60;47.90;;;;;;5030281;28;20865;-49
2023/02/18 12:15:53;;;;;;;1.30;1.20;;;18.30;47.80;;;;;;5029789;28;20554;-48
2023/02/18 12:18:34;;;;;;;2.30;1.63;;;18.20;48.30;;;;;;5028366;28;20909;-49
2023/02/18 12:21:14;;;;;;;3.83;1.30;;;18.30;48.40;;;;;;5030200;28;20864;-48
2023/02/18 12:23:59;;;;;;;1.47;1.17;;;18.20;48.20;;;;;;5029850;28;20507;-48
2023/02/18 12:26:37;;;;;;;1.20;1.10;;;18.40;48.50;;;;;;5029600;28;20427;-48
2023/02/18 12:29:15;;;;;;;1.30;1.20;;;18.60;48.30;;;;;;5029819;28;20987;-48
2023/02/18 12:31:46;;;;;;;1.70;1.60;;;18.30;48.30;;;;;;5029675;28;20488;-50
2023/02/18 12:34:34;;;;;;;5.50;3.63;;;18.30;49.10;;;;;;5040587;28;20436;-48
2023/02/18 12:37:32;;;;;;;3.57;1.93;;;18.10;48.60;;;;;;5029255;28;20440;-48
2023/02/18 12:39:58;;;;;;;3.40;2.20;;;18.20;48.80;;;;;;5028280;28;20581;-48
2023/02/18 12:42:48;;;;;;;10.03;2.33;;;18.30;49.00;;;;;;5029947;28;20435;-52
2023/02/18 12:45:25;;;;;;;2.00;1.90;;;18.10;49.00;;;;;;5028153;28;20315;-51
2023/02/18 12:48:06;;;;;;;1.50;1.40;;;18.00;49.30;;;;;;5030079;28;20463;-51
2023/02/18 12:50:53;;;;;;;1.47;1.37;;;18.10;49.80;;;;;;5029622;28;20471;-52
2023/02/18 12:53:35;;;;;;;3.50;1.50;;;18.20;49.40;;;;;;5028383;28;20542;-51
2023/02/18 12:56:09;;;;;;;1.60;1.50;;;17.60;48.50;;;;;;5029285;28;20424;-51
2023/02/18 12:58:53;;;;;;;1.70;1.57;;;17.40;49.10;;;;;;5029597;28;20455;-52
2023/02/18 13:01:50;;;;;;;2.47;1.60;;;17.50;49.70;;;;;;5029502;28;20432;-51
2023/02/18 13:04:23;;;;;;;1.90;1.80;;;17.50;50.40;;;;;;5029471;28;20446;-50
2023/02/18 13:07:18;;;;;;;2.00;1.80;;;17.50;49.30;;;;;;5016333;28;20443;-52
2023/02/18 13:09:52;;;;;;;1.93;1.77;;;17.70;49.50;;;;;;5029291;28;20479;-51